• Join FlightAware (Why Join?)
  • Login
  • US Flag 
10:26PM EDT


 

Airport Tracker/Info


-or-


 

Live Flight TrackerFlight Track Log ✈ SWA2788 ✈ 10-Nov-2013 ✈ KMDW - KMSP

Flight Track Log - Related Links

Times and Time Zones

All times are in EST time to prevent confusion due to time zone crossing. See the SWA2788 flight status page for this flight to view local times or setup timezone preferences in your user account.

Time Position Orientation Groundspeed Altitude Reporting Facility
EST Latitude Longitude Course Direction KTS MPH feet Rate Location/Type
08:51AM 41.7833 -87.8000 242° Southwest 169 194 2,500  Level Chicago TRACON
08:52AM 41.7472 -87.8919 242° Southwest 259 298 5,100 3,480 Climbing Chicago Center
08:53AM 41.7069 -87.9983 243° Southwest 266 306 10,800 4,560 Climbing Chicago Center
08:54AM 41.7664 -88.0178 346° North 258 297 14,400 2,700 Climbing Chicago Center
08:55AM 41.8511 -88.0056 North 302 348 16,400 2,220 Climbing Chicago Center
08:56AM 41.9444 -87.9867 North 333 383 19,000 2,340 Climbing Chicago Center
08:57AM 42.0389 -87.9889 359° North 344 396 21,200 2,100 Climbing Chicago Center
08:58AM 42.1353 -88.0150 349° North 352 405 23,300 1,860 Climbing Chicago Center
09:00AM 42.2333 -88.0517 345° North 364 419 25,000 1,980 Climbing Chicago Center
09:01AM 42.3167 -88.1361 323° Northwest 369 425 27,400 2,520 Climbing Chicago Center
09:02AM 42.3928 -88.2150 323° Northwest 359 413 30,200 2,220 Climbing Chicago Center
09:03AM 42.4831 -88.3050 324° Northwest 340 391 32,000 840 Climbing Chicago Center
09:04AM 42.5581 -88.3797 324° Northwest 335 386 32,000  Level Chicago Center
09:05AM 42.6306 -88.4542 323° Northwest 330 380 32,000  Level Chicago Center
09:06AM 42.7033 -88.5278 323° Northwest 326 375 32,000  Level Chicago Center
09:07AM 42.7753 -88.6011 323° Northwest 323 372 32,000  Level Chicago Center
09:08AM 42.8481 -88.6744 324° Northwest 323 372 32,000  Level Chicago Center
09:09AM 42.9206 -88.7483 323° Northwest 325 374 32,000  Level Chicago Center
09:10AM 42.9942 -88.8236 323° Northwest 329 379 32,000  Level Chicago Center
09:11AM 43.0675 -88.9006 323° Northwest 331 381 32,000  Level Chicago Center
09:12AM 43.1422 -88.9744 324° Northwest 329 379 32,000  Level Chicago Center
09:13AM 43.2169 -89.0528 323° Northwest 336 387 32,000  Level Chicago Center
09:14AM 43.2914 -89.1300 323° Northwest 335 386 32,000  Level Chicago Center
09:15AM 43.3644 -89.2061 323° Northwest 331 381 32,000  Level Chicago Center
09:16AM 43.4533 -89.2989 323° Northwest 332 382 32,000  Level Chicago Center
09:17AM 43.5267 -89.3761 323° Northwest 332 382 32,000  Level Chicago Center
09:18AM 43.6011 -89.4544 323° Northwest 334 384 32,000  Level Chicago Center
09:19AM 43.6739 -89.5311 323° Northwest 332 382 32,000  Level Chicago Center
09:20AM 43.7481 -89.6100 322° Northwest 335 386 32,000  Level Chicago Center
09:21AM 43.8214 -89.6875 323° Northwest 332 382 32,000  Level Chicago Center
09:22AM 43.8939 -89.7658 322° Northwest 331 381 32,000  Level Chicago Center
09:23AM 43.9675 -89.8442 323° Northwest 333 383 32,000  Level Chicago Center
09:24AM 44.0406 -89.9228 322° Northwest 332 382 32,000  Level Chicago Center
09:25AM 44.1064 -90.0117 316° Northwest 332 382 32,000  Level Chicago Center
09:26AM 44.1572 -90.1114 305° West 322 371 32,000  Level Minneapolis Center
09:27AM 44.2017 -90.2194 300° West 322 371 32,000  Level Minneapolis Center
09:28AM 44.2467 -90.3267 300° West 321 369 32,000  Level Minneapolis Center
09:29AM 44.2922 -90.4319 301° West 319 367 32,000  Level Minneapolis Center
09:30AM 44.3361 -90.5392 300° West 319 367 32,000  Level Minneapolis Center
09:31AM 44.3825 -90.6447 302° West 319 367 32,000  Level Minneapolis Center
09:32AM 44.4289 -90.7508 302° West 320 368 32,000  Level Minneapolis Center
09:33AM 44.4717 -90.8608 299° West 321 369 32,000  Level Minneapolis Center
09:34AM 44.5203 -90.9775 300° West 321 369 32,000  Level Minneapolis Center
09:35AM 44.5656 -91.0861 300° West 323 372 32,000  Level Minneapolis Center
09:36AM 44.6092 -91.1961 299° West 324 373 32,000  Level Minneapolis Center
09:37AM 44.6550 -91.3072 300° West 327 376 32,000 -360 Level Minneapolis Center
09:38AM 44.6992 -91.4153 300° West 324 373 31,300 -1,500 Descending Minneapolis Center
09:39AM 44.7411 -91.5183 300° West 312 359 29,000 -2,400 Descending Minneapolis Center
09:40AM 44.7825 -91.6214 300° West 304 350 26,500 -2,400 Descending Minneapolis Center
09:41AM 44.8228 -91.7203 300° West 298 343 24,200 -2,220 Descending Minneapolis Center
09:42AM 44.8592 -91.8103 300° West 278 320 22,000 -2,100 Descending Minneapolis Center
09:43AM 44.8928 -91.8967 299° West 257 296 20,000 -2,040 Descending Minneapolis Center
09:44AM 44.9294 -91.9872 300° West 263 303 17,900 -2,340 Descending Minneapolis Center
09:45AM 44.9731 -92.1003 299° West 272 313 15,300 -2,460 Descending Minneapolis Center
09:46AM 45.0108 -92.1908 301° West 269 310 13,000 -2,160 Descending Minneapolis Center
09:47AM 45.0456 -92.2817 298° West 266 306 11,000 -1,080 Descending Minneapolis Center
09:48AM 45.0322 -92.3875 260° West 277 319 10,900 -840 Descending Minneapolis Center
09:49AM 44.9906 -92.4778 237° Southwest 273 314 9,400 -1,560 Descending Minneapolis Center
09:50AM 44.9500 -92.5617 236° Southwest 261 300 7,800 -1,200 Descending Minneapolis Center
09:51AM 44.9106 -92.6442 236° Southwest 254 292 7,000 -420 Descending Minneapolis Center
09:52AM 44.8714 -92.7242 235° Southwest 250 288 7,000 -300 Level Minneapolis Center
09:53AM 44.8367 -92.7961 236° Southwest 226 260 6,500 -960 Descending Minneapolis Center
09:54AM 44.8036 -92.8647 236° Southwest 215 247 5,100 -1,260 Descending Minneapolis Center
09:55AM 44.8064 -92.9414 273° West 208 239 4,000 -1,020 Descending Minneapolis Center
09:56AM 44.8186 -93.0228 282° West 213 245 3,100 -660 Descending Minneapolis Center
09:57AM 44.8378 -93.0939 291° West 160 184 2,700 -600 Descending Minneapolis Center
09:58AM 44.8553 -93.1344 301° West 125 144 1,900 -720 Descending Minneapolis Center
09:59AM 44.8725 -93.1731 302° West 118 136 1,300 -600 Descending Minneapolis Center
10:01AM 44.8667 -93.2167 245° Southwest  Level FlightAware Approximate
10:08AM 44.8820 -93.2218 245° Southwest  Level Estimated